sensor_id;sensor_type;location;lat;lon;timestamp;P1;durP1;ratioP1;P2;durP2;ratioP2
77226;SDS011;66234;47.642;19.144;2023-05-10T00:02:43;3.10;;;1.83;;
77226;SDS011;66234;47.642;19.144;2023-05-10T00:05:46;2.03;;;1.50;;
77226;SDS011;66234;47.642;19.144;2023-05-10T00:08:48;3.70;;;1.30;;
77226;SDS011;66234;47.642;19.144;2023-05-10T00:11:51;3.38;;;1.58;;
77226;SDS011;66234;47.642;19.144;2023-05-10T00:14:53;2.40;;;1.20;;
77226;SDS011;66234;47.642;19.144;2023-05-10T00:17:56;3.50;;;1.80;;
77226;SDS011;66234;47.642;19.144;2023-05-10T00:20:59;5.00;;;1.90;;
77226;SDS011;66234;47.642;19.144;2023-05-10T00:24:02;2.00;;;1.50;;
77226;SDS011;66234;47.642;19.144;2023-05-10T00:27:04;2.78;;;1.80;;
77226;SDS011;66234;47.642;19.144;2023-05-10T00:30:07;2.73;;;1.87;;
77226;SDS011;66234;47.642;19.144;2023-05-10T00:33:10;2.47;;;1.80;;
77226;SDS011;66234;47.642;19.144;2023-05-10T00:36:13;4.63;;;1.95;;
77226;SDS011;66234;47.642;19.144;2023-05-10T00:39:16;3.95;;;2.15;;
77226;SDS011;66234;47.642;19.144;2023-05-10T00:42:19;2.40;;;1.40;;
77226;SDS011;66234;47.642;19.144;2023-05-10T00:45:21;4.17;;;2.23;;
77226;SDS011;66234;47.642;19.144;2023-05-10T00:48:25;3.83;;;2.07;;
77226;SDS011;66234;47.642;19.144;2023-05-10T00:51:28;3.42;;;1.98;;
77226;SDS011;66234;47.642;19.144;2023-05-10T00:54:30;3.88;;;2.50;;
77226;SDS011;66234;47.642;19.144;2023-05-10T00:57:33;3.45;;;1.75;;
77226;SDS011;66234;47.642;19.144;2023-05-10T01:00:36;4.83;;;2.03;;
77226;SDS011;66234;47.642;19.144;2023-05-10T01:03:40;2.57;;;1.70;;
77226;SDS011;66234;47.642;19.144;2023-05-10T01:06:43;2.92;;;1.80;;
77226;SDS011;66234;47.642;19.144;2023-05-10T01:09:46;2.15;;;1.80;;
77226;SDS011;66234;47.642;19.144;2023-05-10T01:12:50;3.30;;;1.80;;
77226;SDS011;66234;47.642;19.144;2023-05-10T01:15:53;4.63;;;2.13;;
77226;SDS011;66234;47.642;19.144;2023-05-10T01:18:57;4.13;;;2.27;;
77226;SDS011;66234;47.642;19.144;2023-05-10T01:32:51;2.90;;;1.90;;
77226;SDS011;66234;47.642;19.144;2023-05-10T01:36:03;3.47;;;2.07;;
77226;SDS011;66234;47.642;19.144;2023-05-10T01:39:24;4.07;;;2.00;;
77226;SDS011;66234;47.642;19.144;2023-05-10T01:42:36;4.03;;;2.30;;
77226;SDS011;66234;47.642;19.144;2023-05-10T01:45:50;5.03;;;2.20;;
77226;SDS011;66234;47.642;19.144;2023-05-10T01:49:24;4.10;;;1.97;;
77226;SDS011;66234;47.642;19.144;2023-05-10T01:52:33;6.07;;;1.90;;
77226;SDS011;66234;47.642;19.144;2023-05-10T01:55:43;3.45;;;1.80;;
77226;SDS011;66234;47.642;19.144;2023-05-10T01:58:49;3.50;;;2.03;;
77226;SDS011;66234;47.642;19.144;2023-05-10T02:01:55;2.90;;;2.03;;
77226;SDS011;66234;47.642;19.144;2023-05-10T02:05:01;3.20;;;1.80;;
77226;SDS011;66234;47.642;19.144;2023-05-10T02:08:06;3.50;;;2.10;;
77226;SDS011;66234;47.642;19.144;2023-05-10T02:11:12;5.60;;;2.08;;
77226;SDS011;66234;47.642;19.144;2023-05-10T02:14:17;4.40;;;2.15;;
77226;SDS011;66234;47.642;19.144;2023-05-10T02:17:21;3.70;;;2.35;;
77226;SDS011;66234;47.642;19.144;2023-05-10T02:20:25;4.10;;;2.20;;
77226;SDS011;66234;47.642;19.144;2023-05-10T02:23:29;3.37;;;1.97;;
77226;SDS011;66234;47.642;19.144;2023-05-10T02:26:32;3.90;;;1.90;;
77226;SDS011;66234;47.642;19.144;2023-05-10T02:29:37;3.05;;;2.17;;
77226;SDS011;66234;47.642;19.144;2023-05-10T02:32:40;4.10;;;1.67;;
77226;SDS011;66234;47.642;19.144;2023-05-10T02:35:44;3.20;;;1.67;;
77226;SDS011;66234;47.642;19.144;2023-05-10T02:38:48;5.03;;;2.40;;
77226;SDS011;66234;47.642;19.144;2023-05-10T02:41:53;6.00;;;2.00;;
77226;SDS011;66234;47.642;19.144;2023-05-10T05:41:27;6.20;;;3.90;;
77226;SDS011;66234;47.642;19.144;2023-05-10T05:44:30;9.88;;;4.03;;
77226;SDS011;66234;47.642;19.144;2023-05-10T05:47:33;5.93;;;3.50;;
77226;SDS011;66234;47.642;19.144;2023-05-10T05:50:35;7.67;;;3.43;;
77226;SDS011;66234;47.642;19.144;2023-05-10T05:53:38;9.33;;;3.70;;
77226;SDS011;66234;47.642;19.144;2023-05-10T05:56:44;8.82;;;4.63;;
77226;SDS011;66234;47.642;19.144;2023-05-10T05:59:46;5.95;;;4.07;;
77226;SDS011;66234;47.642;19.144;2023-05-10T06:02:49;5.93;;;4.05;;
77226;SDS011;66234;47.642;19.144;2023-05-10T06:05:53;4.87;;;3.77;;
77226;SDS011;66234;47.642;19.144;2023-05-10T06:08:55;7.73;;;3.73;;
77226;SDS011;66234;47.642;19.144;2023-05-10T06:12:00;5.50;;;3.75;;
77226;SDS011;66234;47.642;19.144;2023-05-10T06:15:03;6.00;;;3.30;;
77226;SDS011;66234;47.642;19.144;2023-05-10T06:18:06;6.65;;;3.70;;
77226;SDS011;66234;47.642;19.144;2023-05-10T06:21:11;8.30;;;4.17;;
77226;SDS011;66234;47.642;19.144;2023-05-10T06:24:22;6.07;;;3.13;;
77226;SDS011;66234;47.642;19.144;2023-05-10T06:27:25;5.90;;;3.65;;
77226;SDS011;66234;47.642;19.144;2023-05-10T06:30:28;6.70;;;2.97;;
77226;SDS011;66234;47.642;19.144;2023-05-10T06:33:31;4.95;;;3.70;;
77226;SDS011;66234;47.642;19.144;2023-05-10T06:36:34;6.30;;;3.87;;
77226;SDS011;66234;47.642;19.144;2023-05-10T06:39:37;6.37;;;3.47;;
77226;SDS011;66234;47.642;19.144;2023-05-10T06:42:42;5.40;;;3.30;;
77226;SDS011;66234;47.642;19.144;2023-05-10T06:45:47;6.68;;;3.65;;
77226;SDS011;66234;47.642;19.144;2023-05-10T06:48:50;6.47;;;3.33;;
77226;SDS011;66234;47.642;19.144;2023-05-10T06:51:52;4.80;;;3.20;;
77226;SDS011;66234;47.642;19.144;2023-05-10T06:55:15;8.43;;;4.27;;
77226;SDS011;66234;47.642;19.144;2023-05-10T06:58:19;5.05;;;3.42;;
77226;SDS011;66234;47.642;19.144;2023-05-10T07:01:22;5.40;;;2.80;;
77226;SDS011;66234;47.642;19.144;2023-05-10T07:04:25;4.10;;;3.28;;
77226;SDS011;66234;47.642;19.144;2023-05-10T07:07:27;9.10;;;3.07;;
77226;SDS011;66234;47.642;19.144;2023-05-10T07:10:30;5.67;;;3.40;;
77226;SDS011;66234;47.642;19.144;2023-05-10T07:13:33;4.00;;;3.08;;
77226;SDS011;66234;47.642;19.144;2023-05-10T07:16:36;4.00;;;2.80;;
77226;SDS011;66234;47.642;19.144;2023-05-10T07:19:39;4.00;;;3.03;;
77226;SDS011;66234;47.642;19.144;2023-05-10T07:22:41;3.93;;;2.87;;
77226;SDS011;66234;47.642;19.144;2023-05-10T07:25:47;5.43;;;3.10;;
77226;SDS011;66234;47.642;19.144;2023-05-10T07:28:51;3.45;;;2.50;;
77226;SDS011;66234;47.642;19.144;2023-05-10T07:31:54;4.53;;;3.15;;
77226;SDS011;66234;47.642;19.144;2023-05-10T07:35:00;4.47;;;3.00;;
77226;SDS011;66234;47.642;19.144;2023-05-10T07:38:02;4.47;;;3.30;;
77226;SDS011;66234;47.642;19.144;2023-05-10T07:41:05;7.50;;;3.30;;
77226;SDS011;66234;47.642;19.144;2023-05-10T07:44:08;5.28;;;3.08;;
77226;SDS011;66234;47.642;19.144;2023-05-10T07:47:10;3.85;;;2.85;;
77226;SDS011;66234;47.642;19.144;2023-05-10T07:50:13;10.45;;;3.90;;
77226;SDS011;66234;47.642;19.144;2023-05-10T07:53:16;12.57;;;3.27;;
77226;SDS011;66234;47.642;19.144;2023-05-10T07:59:23;8.52;;;4.50;;
77226;SDS011;66234;47.642;19.144;2023-05-10T08:02:27;3.80;;;3.10;;
77226;SDS011;66234;47.642;19.144;2023-05-10T08:05:30;2.80;;;2.50;;
77226;SDS011;66234;47.642;19.144;2023-05-10T08:08:36;3.57;;;3.00;;
77226;SDS011;66234;47.642;19.144;2023-05-10T08:11:39;3.50;;;2.57;;
77226;SDS011;66234;47.642;19.144;2023-05-10T08:14:41;4.85;;;2.90;;
77226;SDS011;66234;47.642;19.144;2023-05-10T08:17:44;5.22;;;2.50;;
77226;SDS011;66234;47.642;19.144;2023-05-10T08:20:52;4.82;;;2.95;;
77226;SDS011;66234;47.642;19.144;2023-05-10T08:23:54;5.37;;;3.27;;
77226;SDS011;66234;47.642;19.144;2023-05-10T08:26:57;6.23;;;3.20;;
77226;SDS011;66234;47.642;19.144;2023-05-10T13:34:40;3.07;;;2.10;;
77226;SDS011;66234;47.642;19.144;2023-05-10T13:37:44;2.23;;;1.70;;
77226;SDS011;66234;47.642;19.144;2023-05-10T13:40:46;3.75;;;1.60;;
77226;SDS011;66234;47.642;19.144;2023-05-10T13:43:49;8.30;;;1.98;;
77226;SDS011;66234;47.642;19.144;2023-05-10T13:46:51;5.43;;;1.92;;
77226;SDS011;66234;47.642;19.144;2023-05-10T13:49:54;1.95;;;1.48;;
77226;SDS011;66234;47.642;19.144;2023-05-10T13:52:57;2.77;;;1.60;;
77226;SDS011;66234;47.642;19.144;2023-05-10T13:55:59;3.47;;;1.50;;
77226;SDS011;66234;47.642;19.144;2023-05-10T13:59:02;3.25;;;1.20;;
77226;SDS011;66234;47.642;19.144;2023-05-10T14:02:07;3.22;;;1.60;;
77226;SDS011;66234;47.642;19.144;2023-05-10T14:05:09;1.50;;;1.40;;
77226;SDS011;66234;47.642;19.144;2023-05-10T14:08:12;3.07;;;1.90;;
77226;SDS011;66234;47.642;19.144;2023-05-10T14:11:15;2.83;;;1.50;;
77226;SDS011;66234;47.642;19.144;2023-05-10T14:14:18;2.40;;;1.05;;
77226;SDS011;66234;47.642;19.144;2023-05-10T14:17:20;7.57;;;1.70;;
77226;SDS011;66234;47.642;19.144;2023-05-10T14:20:24;2.00;;;1.33;;
77226;SDS011;66234;47.642;19.144;2023-05-10T14:23:26;3.50;;;1.33;;
77226;SDS011;66234;47.642;19.144;2023-05-10T14:26:30;1.90;;;1.60;;
77226;SDS011;66234;47.642;19.144;2023-05-10T14:29:33;2.00;;;1.50;;
77226;SDS011;66234;47.642;19.144;2023-05-10T14:32:36;2.90;;;1.75;;
77226;SDS011;66234;47.642;19.144;2023-05-10T14:35:40;4.47;;;1.50;;
77226;SDS011;66234;47.642;19.144;2023-05-10T14:38:43;2.67;;;1.23;;
77226;SDS011;66234;47.642;19.144;2023-05-10T14:41:46;2.72;;;1.20;;
77226;SDS011;66234;47.642;19.144;2023-05-10T14:44:49;2.50;;;1.10;;
77226;SDS011;66234;47.642;19.144;2023-05-10T14:47:52;1.75;;;1.15;;
77226;SDS011;66234;47.642;19.144;2023-05-10T14:50:55;3.23;;;2.33;;
77226;SDS011;66234;47.642;19.144;2023-05-10T14:53:57;1.70;;;1.40;;
77226;SDS011;66234;47.642;19.144;2023-05-10T14:57:00;2.03;;;1.13;;
77226;SDS011;66234;47.642;19.144;2023-05-10T15:00:03;2.55;;;1.63;;
77226;SDS011;66234;47.642;19.144;2023-05-10T15:03:06;1.35;;;1.10;;
77226;SDS011;66234;47.642;19.144;2023-05-10T15:06:09;2.27;;;0.90;;
77226;SDS011;66234;47.642;19.144;2023-05-10T15:09:12;2.40;;;1.70;;
77226;SDS011;66234;47.642;19.144;2023-05-10T15:12:15;1.25;;;1.15;;
77226;SDS011;66234;47.642;19.144;2023-05-10T15:15:17;1.90;;;1.30;;
77226;SDS011;66234;47.642;19.144;2023-05-10T15:18:20;3.95;;;1.88;;
77226;SDS011;66234;47.642;19.144;2023-05-10T15:21:24;3.53;;;2.20;;
77226;SDS011;66234;47.642;19.144;2023-05-10T15:24:27;2.53;;;1.70;;
77226;SDS011;66234;47.642;19.144;2023-05-10T15:27:30;1.52;;;1.42;;
77226;SDS011;66234;47.642;19.144;2023-05-10T15:30:32;6.25;;;1.65;;
77226;SDS011;66234;47.642;19.144;2023-05-10T15:33:36;2.38;;;1.63;;
77226;SDS011;66234;47.642;19.144;2023-05-10T15:36:39;2.63;;;1.40;;
77226;SDS011;66234;47.642;19.144;2023-05-10T15:39:41;2.47;;;1.40;;
77226;SDS011;66234;47.642;19.144;2023-05-10T15:42:44;3.00;;;1.90;;
77226;SDS011;66234;47.642;19.144;2023-05-10T15:45:46;2.78;;;1.70;;
77226;SDS011;66234;47.642;19.144;2023-05-10T15:48:49;2.03;;;1.65;;
77226;SDS011;66234;47.642;19.144;2023-05-10T15:51:51;2.03;;;1.70;;
77226;SDS011;66234;47.642;19.144;2023-05-10T15:54:54;3.50;;;1.70;;
77226;SDS011;66234;47.642;19.144;2023-05-10T15:57:57;2.15;;;1.95;;
77226;SDS011;66234;47.642;19.144;2023-05-10T16:00:59;3.30;;;2.00;;
77226;SDS011;66234;47.642;19.144;2023-05-10T16:04:02;2.88;;;2.08;;
77226;SDS011;66234;47.642;19.144;2023-05-10T16:07:05;5.20;;;2.30;;
77226;SDS011;66234;47.642;19.144;2023-05-10T16:10:08;2.30;;;2.10;;
77226;SDS011;66234;47.642;19.144;2023-05-10T16:13:12;1.98;;;1.77;;
77226;SDS011;66234;47.642;19.144;2023-05-10T16:16:16;2.40;;;1.95;;
77226;SDS011;66234;47.642;19.144;2023-05-10T16:19:18;3.15;;;2.13;;
77226;SDS011;66234;47.642;19.144;2023-05-10T16:22:21;2.10;;;1.73;;
77226;SDS011;66234;47.642;19.144;2023-05-10T16:25:28;4.43;;;1.80;;
77226;SDS011;66234;47.642;19.144;2023-05-10T16:28:31;2.83;;;2.00;;
77226;SDS011;66234;47.642;19.144;2023-05-10T16:31:33;4.20;;;2.58;;
77226;SDS011;66234;47.642;19.144;2023-05-10T16:34:36;4.43;;;1.83;;
77226;SDS011;66234;47.642;19.144;2023-05-10T16:37:39;2.70;;;1.90;;
77226;SDS011;66234;47.642;19.144;2023-05-10T16:40:41;4.27;;;1.87;;
77226;SDS011;66234;47.642;19.144;2023-05-10T16:43:44;4.00;;;1.65;;
77226;SDS011;66234;47.642;19.144;2023-05-10T16:46:46;5.03;;;1.58;;
77226;SDS011;66234;47.642;19.144;2023-05-10T16:49:50;2.60;;;1.80;;
77226;SDS011;66234;47.642;19.144;2023-05-10T16:52:52;2.23;;;1.90;;
77226;SDS011;66234;47.642;19.144;2023-05-10T16:55:55;2.33;;;1.53;;
77226;SDS011;66234;47.642;19.144;2023-05-10T16:58:57;2.05;;;1.52;;
77226;SDS011;66234;47.642;19.144;2023-05-10T17:02:00;4.93;;;2.00;;
77226;SDS011;66234;47.642;19.144;2023-05-10T17:05:03;3.83;;;1.67;;
77226;SDS011;66234;47.642;19.144;2023-05-10T17:08:06;4.57;;;1.57;;
77226;SDS011;66234;47.642;19.144;2023-05-10T17:11:08;6.20;;;2.00;;
77226;SDS011;66234;47.642;19.144;2023-05-10T17:14:11;3.63;;;1.85;;
77226;SDS011;66234;47.642;19.144;2023-05-10T17:17:14;3.35;;;2.17;;
77226;SDS011;66234;47.642;19.144;2023-05-10T17:20:17;3.70;;;2.20;;
77226;SDS011;66234;47.642;19.144;2023-05-10T17:23:19;3.93;;;2.80;;
77226;SDS011;66234;47.642;19.144;2023-05-10T17:26:22;5.33;;;1.97;;
77226;SDS011;66234;47.642;19.144;2023-05-10T17:29:25;2.67;;;1.70;;
77226;SDS011;66234;47.642;19.144;2023-05-10T17:32:29;2.42;;;1.67;;
77226;SDS011;66234;47.642;19.144;2023-05-10T17:35:32;3.03;;;1.90;;
77226;SDS011;66234;47.642;19.144;2023-05-10T17:38:35;2.63;;;1.50;;
77226;SDS011;66234;47.642;19.144;2023-05-10T17:41:37;2.23;;;1.40;;
77226;SDS011;66234;47.642;19.144;2023-05-10T17:44:40;3.38;;;1.27;;
77226;SDS011;66234;47.642;19.144;2023-05-10T17:47:43;2.92;;;1.58;;
77226;SDS011;66234;47.642;19.144;2023-05-10T17:50:45;5.50;;;1.33;;
77226;SDS011;66234;47.642;19.144;2023-05-10T17:53:51;5.47;;;1.40;;
77226;SDS011;66234;47.642;19.144;2023-05-10T17:56:54;2.87;;;1.27;;
77226;SDS011;66234;47.642;19.144;2023-05-10T17:59:59;4.88;;;1.27;;
77226;SDS011;66234;47.642;19.144;2023-05-10T18:03:06;2.50;;;1.30;;
77226;SDS011;66234;47.642;19.144;2023-05-10T18:06:08;2.65;;;1.20;;
77226;SDS011;66234;47.642;19.144;2023-05-10T18:09:11;4.20;;;1.53;;
77226;SDS011;66234;47.642;19.144;2023-05-10T18:12:14;2.50;;;1.17;;
77226;SDS011;66234;47.642;19.144;2023-05-10T18:15:16;5.32;;;1.35;;
77226;SDS011;66234;47.642;19.144;2023-05-10T18:18:19;2.30;;;1.38;;
77226;SDS011;66234;47.642;19.144;2023-05-10T18:21:22;4.65;;;2.15;;
77226;SDS011;66234;47.642;19.144;2023-05-10T18:24:25;3.90;;;2.10;;
77226;SDS011;66234;47.642;19.144;2023-05-10T18:27:40;2.33;;;1.53;;
77226;SDS011;66234;47.642;19.144;2023-05-10T18:30:43;3.15;;;1.60;;
77226;SDS011;66234;47.642;19.144;2023-05-10T18:33:46;1.80;;;1.42;;
77226;SDS011;66234;47.642;19.144;2023-05-10T18:36:48;3.30;;;1.58;;
77226;SDS011;66234;47.642;19.144;2023-05-10T18:39:51;3.20;;;1.90;;
77226;SDS011;66234;47.642;19.144;2023-05-10T18:42:54;6.00;;;1.80;;
77226;SDS011;66234;47.642;19.144;2023-05-10T18:45:56;3.45;;;1.63;;
77226;SDS011;66234;47.642;19.144;2023-05-10T18:48:59;5.70;;;1.33;;
77226;SDS011;66234;47.642;19.144;2023-05-10T18:52:01;1.92;;;1.50;;
77226;SDS011;66234;47.642;19.144;2023-05-10T18:55:04;1.93;;;1.50;;
77226;SDS011;66234;47.642;19.144;2023-05-10T18:58:07;2.40;;;1.40;;
77226;SDS011;66234;47.642;19.144;2023-05-10T19:01:10;3.63;;;1.73;;
77226;SDS011;66234;47.642;19.144;2023-05-10T19:04:13;2.55;;;1.25;;
77226;SDS011;66234;47.642;19.144;2023-05-10T19:07:16;2.05;;;1.10;;
77226;SDS011;66234;47.642;19.144;2023-05-10T19:10:19;3.10;;;1.40;;
77226;SDS011;66234;47.642;19.144;2023-05-10T19:13:21;3.17;;;1.53;;
77226;SDS011;66234;47.642;19.144;2023-05-10T19:16:25;2.42;;;1.83;;
77226;SDS011;66234;47.642;19.144;2023-05-10T19:19:30;3.63;;;2.33;;
77226;SDS011;66234;47.642;19.144;2023-05-10T19:22:34;5.43;;;1.90;;
77226;SDS011;66234;47.642;19.144;2023-05-10T19:25:57;2.90;;;1.30;;
77226;SDS011;66234;47.642;19.144;2023-05-10T19:29:00;3.03;;;1.50;;
77226;SDS011;66234;47.642;19.144;2023-05-10T19:32:03;2.17;;;1.33;;
77226;SDS011;66234;47.642;19.144;2023-05-10T19:35:06;2.88;;;1.30;;
77226;SDS011;66234;47.642;19.144;2023-05-10T19:38:10;3.03;;;1.50;;
77226;SDS011;66234;47.642;19.144;2023-05-10T19:41:13;3.13;;;1.50;;
77226;SDS011;66234;47.642;19.144;2023-05-10T19:44:16;1.87;;;1.30;;
77226;SDS011;66234;47.642;19.144;2023-05-10T19:47:19;2.90;;;1.10;;
77226;SDS011;66234;47.642;19.144;2023-05-10T19:50:22;6.15;;;1.55;;
77226;SDS011;66234;47.642;19.144;2023-05-10T19:53:25;1.88;;;1.52;;
77226;SDS011;66234;47.642;19.144;2023-05-10T19:56:28;4.30;;;1.53;;
77226;SDS011;66234;47.642;19.144;2023-05-10T19:59:32;4.07;;;1.40;;
77226;SDS011;66234;47.642;19.144;2023-05-10T20:02:35;1.27;;;1.00;;
77226;SDS011;66234;47.642;19.144;2023-05-10T20:05:37;3.53;;;1.20;;
77226;SDS011;66234;47.642;19.144;2023-05-10T20:08:40;2.33;;;1.20;;
77226;SDS011;66234;47.642;19.144;2023-05-10T20:11:42;2.00;;;1.40;;
77226;SDS011;66234;47.642;19.144;2023-05-10T20:14:45;2.20;;;1.47;;
77226;SDS011;66234;47.642;19.144;2023-05-10T20:17:48;3.17;;;1.45;;
77226;SDS011;66234;47.642;19.144;2023-05-10T20:20:56;4.10;;;1.70;;
77226;SDS011;66234;47.642;19.144;2023-05-10T20:24:00;3.78;;;1.48;;
77226;SDS011;66234;47.642;19.144;2023-05-10T20:27:03;3.43;;;1.50;;
77226;SDS011;66234;47.642;19.144;2023-05-10T20:30:05;3.90;;;2.33;;
77226;SDS011;66234;47.642;19.144;2023-05-10T20:33:08;2.75;;;1.60;;
77226;SDS011;66234;47.642;19.144;2023-05-10T20:36:11;3.63;;;1.20;;
77226;SDS011;66234;47.642;19.144;2023-05-10T20:39:14;3.10;;;1.77;;
77226;SDS011;66234;47.642;19.144;2023-05-10T20:42:16;2.47;;;1.50;;
77226;SDS011;66234;47.642;19.144;2023-05-10T20:45:19;5.87;;;1.50;;
77226;SDS011;66234;47.642;19.144;2023-05-10T20:48:21;1.90;;;1.30;;
77226;SDS011;66234;47.642;19.144;2023-05-10T20:51:24;5.68;;;1.83;;
77226;SDS011;66234;47.642;19.144;2023-05-10T20:54:27;3.25;;;1.40;;
77226;SDS011;66234;47.642;19.144;2023-05-10T20:57:29;3.53;;;1.43;;
77226;SDS011;66234;47.642;19.144;2023-05-10T21:00:32;5.43;;;1.50;;
77226;SDS011;66234;47.642;19.144;2023-05-10T21:03:34;2.22;;;1.20;;
77226;SDS011;66234;47.642;19.144;2023-05-10T21:06:37;2.60;;;1.25;;
77226;SDS011;66234;47.642;19.144;2023-05-10T21:09:40;2.10;;;1.40;;
77226;SDS011;66234;47.642;19.144;2023-05-10T21:12:42;1.90;;;1.37;;
77226;SDS011;66234;47.642;19.144;2023-05-10T21:15:45;4.07;;;1.50;;
77226;SDS011;66234;47.642;19.144;2023-05-10T21:18:47;1.75;;;1.20;;
77226;SDS011;66234;47.642;19.144;2023-05-10T21:21:50;2.50;;;1.33;;
77226;SDS011;66234;47.642;19.144;2023-05-10T21:24:53;3.97;;;1.50;;
77226;SDS011;66234;47.642;19.144;2023-05-10T21:27:56;4.93;;;1.73;;
77226;SDS011;66234;47.642;19.144;2023-05-10T21:30:58;2.37;;;1.50;;
77226;SDS011;66234;47.642;19.144;2023-05-10T21:34:01;2.80;;;1.70;;
77226;SDS011;66234;47.642;19.144;2023-05-10T21:37:03;3.00;;;1.67;;
77226;SDS011;66234;47.642;19.144;2023-05-10T21:40:06;5.30;;;1.77;;
77226;SDS011;66234;47.642;19.144;2023-05-10T21:43:09;3.53;;;1.57;;
77226;SDS011;66234;47.642;19.144;2023-05-10T21:46:12;4.87;;;1.57;;
77226;SDS011;66234;47.642;19.144;2023-05-10T21:49:15;2.17;;;1.42;;
77226;SDS011;66234;47.642;19.144;2023-05-10T21:52:17;3.25;;;1.77;;
77226;SDS011;66234;47.642;19.144;2023-05-10T21:55:20;3.92;;;1.77;;
77226;SDS011;66234;47.642;19.144;2023-05-10T21:58:23;2.40;;;1.67;;
77226;SDS011;66234;47.642;19.144;2023-05-10T22:01:26;4.80;;;2.00;;
77226;SDS011;66234;47.642;19.144;2023-05-10T22:04:29;3.58;;;1.95;;
77226;SDS011;66234;47.642;19.144;2023-05-10T22:07:31;4.38;;;2.30;;
77226;SDS011;66234;47.642;19.144;2023-05-10T22:10:34;4.60;;;2.30;;
77226;SDS011;66234;47.642;19.144;2023-05-10T22:13:37;3.67;;;1.80;;
77226;SDS011;66234;47.642;19.144;2023-05-10T22:16:39;3.47;;;2.00;;
77226;SDS011;66234;47.642;19.144;2023-05-10T22:19:42;4.32;;;2.10;;
77226;SDS011;66234;47.642;19.144;2023-05-10T22:22:45;3.33;;;1.85;;
77226;SDS011;66234;47.642;19.144;2023-05-10T22:25:47;2.85;;;1.52;;
77226;SDS011;66234;47.642;19.144;2023-05-10T22:28:50;4.70;;;2.43;;
77226;SDS011;66234;47.642;19.144;2023-05-10T22:31:52;3.40;;;1.90;;
77226;SDS011;66234;47.642;19.144;2023-05-10T22:34:55;3.13;;;2.17;;
77226;SDS011;66234;47.642;19.144;2023-05-10T22:37:58;3.22;;;1.67;;
77226;SDS011;66234;47.642;19.144;2023-05-10T22:41:00;3.60;;;1.50;;
77226;SDS011;66234;47.642;19.144;2023-05-10T22:44:03;3.10;;;1.30;;
77226;SDS011;66234;47.642;19.144;2023-05-10T22:47:06;3.40;;;1.43;;
77226;SDS011;66234;47.642;19.144;2023-05-10T22:50:09;2.42;;;1.45;;
77226;SDS011;66234;47.642;19.144;2023-05-10T22:53:13;3.38;;;1.40;;
77226;SDS011;66234;47.642;19.144;2023-05-10T22:56:16;5.35;;;1.95;;
77226;SDS011;66234;47.642;19.144;2023-05-10T22:59:19;3.07;;;1.27;;
77226;SDS011;66234;47.642;19.144;2023-05-10T23:02:22;2.73;;;1.23;;
77226;SDS011;66234;47.642;19.144;2023-05-10T23:05:24;2.92;;;1.67;;
77226;SDS011;66234;47.642;19.144;2023-05-10T23:08:27;4.35;;;1.42;;
77226;SDS011;66234;47.642;19.144;2023-05-10T23:11:29;2.85;;;1.25;;
77226;SDS011;66234;47.642;19.144;2023-05-10T23:14:32;3.07;;;1.20;;
77226;SDS011;66234;47.642;19.144;2023-05-10T23:17:34;3.27;;;1.30;;
77226;SDS011;66234;47.642;19.144;2023-05-10T23:20:39;4.55;;;1.50;;
77226;SDS011;66234;47.642;19.144;2023-05-10T23:23:43;2.80;;;1.40;;
77226;SDS011;66234;47.642;19.144;2023-05-10T23:26:46;2.72;;;1.30;;
77226;SDS011;66234;47.642;19.144;2023-05-10T23:29:49;2.47;;;1.33;;
77226;SDS011;66234;47.642;19.144;2023-05-10T23:32:56;3.73;;;1.20;;
77226;SDS011;66234;47.642;19.144;2023-05-10T23:35:59;2.72;;;1.35;;
77226;SDS011;66234;47.642;19.144;2023-05-10T23:39:02;2.97;;;1.50;;
77226;SDS011;66234;47.642;19.144;2023-05-10T23:42:06;2.47;;;1.33;;
77226;SDS011;66234;47.642;19.144;2023-05-10T23:45:08;2.03;;;1.27;;
77226;SDS011;66234;47.642;19.144;2023-05-10T23:48:11;2.87;;;1.50;;
77226;SDS011;66234;47.642;19.144;2023-05-10T23:51:14;2.70;;;1.33;;
77226;SDS011;66234;47.642;19.144;2023-05-10T23:54:18;2.90;;;1.40;;
77226;SDS011;66234;47.642;19.144;2023-05-10T23:57:20;2.53;;;1.38;;
